Tropical Cyclones
[Index]
Main Index Home Page Stock Weather Photos Extreme Storms Discussion Storm News and Storm Chasing Reports Tropical Cyclones / Hurricanes / Typhoons Weather Data and Links Wild Fires / Bushfires Weather Observation Techniques Weather Picture Catalogue Tornado Pictures and Reports Stock Video Footage and DVDs for sale
Season 2017-2018 Tropical Cyclone HOLA Track Map
Season 2017-2018 Summaries (Operational Data): [AU] [SIO] [SPAC] [SH]
<<- Previous TC | 2017-2018 Season | Next TC ->>

click for intensity scale information  Lat/long Grid: Show Hide

 Date Labels: Show Hide

Operational Tropical Cyclone Data : JTWC Advisories

Name: HOLA
Number: 1812

02 Mar 2018 12:00 UTC to 12 Mar 2018 00:00 UTC

    date/time    lat    long     hPa   cat  kts
2018-03-02 12   12.6   173.4    1010         15          
2018-03-02 18   13.0   173.7    1010         15          
2018-03-03 00   13.9   173.9    1010         15          
2018-03-03 06   13.5   174.3    1010         15          
2018-03-03 12   14.8   174.6    1004         25          
2018-03-03 18   15.1   174.3    1004         25          
2018-03-04 00   15.3   174.0    1004         25          
2018-03-04 06   15.5   173.6    1004         25          
2018-03-04 12   15.7   173.3    1004         25          
2018-03-04 18   16.0   173.0    1002         30          
2018-03-05 00   16.4   172.6    1001         30          
2018-03-05 06   15.8   172.0     999         30          
2018-03-05 12   15.5   171.5    1000         30          
2018-03-05 18   15.5   171.3    1000         30          
2018-03-06 00   15.4   170.7    1000         30          
2018-03-06 06   15.7   169.8     999         30          
2018-03-06 12   15.9   168.9     999    1    35          
2018-03-06 18   16.1   168.4     993    1    45          
2018-03-07 00   16.0   167.6     992    2    50          
2018-03-07 06   16.2   167.2     992    2    55          
2018-03-07 12   16.6   166.7     970    3    70          
2018-03-07 18   16.9   166.2     962    4    90          
2018-03-08 00   17.2   165.7     963    4    90          
2018-03-08 06   17.6   165.4     948    4   100          
2018-03-08 12   17.7   165.3     958    4    95          
2018-03-08 18   17.9   165.3     956    4    95          
2018-03-09 00   18.1   165.3     966    3    85          
2018-03-09 06   18.6   166.1     968    3    80          
2018-03-09 12   19.2   166.9     975    3    75          
2018-03-09 18   20.4   168.1     970    3    80          
2018-03-10 00   21.3   169.1     963    3    80          
2018-03-10 06   23.1   170.8     972    3    70          
2018-03-10 12   25.3   172.5     978    2    60          
2018-03-10 18   26.9   173.2     982    2    55          
2018-03-11 00   28.7   173.4     982    2    55          
2018-03-11 06   29.1   173.5     996    1    35          
2018-03-11 12   29.5   173.8     996    1    35          
2018-03-11 18   29.9   174.3    1000         30          
2018-03-12 00   31.0   175.8     997         30          
Winds are 10-min average.

Tropical cyclone tracks developed by Michael Bath using operational warnings and advisories and Google Maps.


[Australian Severe Weather index] [Copyright Notice] [Email Contacts] [Search This Site] [Privacy Policy]
Document: tropical_cyclone_hola.htm Updated: 11 March 2020